sensor_id;sensor_type;location;lat;lon;timestamp;temperature;humidity
3288;DHT22;3260;52.438;13.502;2023-04-24T04:02:23;13.00;1.00
3288;DHT22;3260;52.438;13.502;2023-04-24T04:04:52;13.00;1.00
3288;DHT22;3260;52.438;13.502;2023-04-24T04:07:20;13.00;1.00
3288;DHT22;3260;52.438;13.502;2023-04-24T04:09:48;13.00;1.00
3288;DHT22;3260;52.438;13.502;2023-04-24T04:12:16;13.00;1.00
3288;DHT22;3260;52.438;13.502;2023-04-24T04:14:45;12.90;1.00
3288;DHT22;3260;52.438;13.502;2023-04-24T04:17:13;13.00;1.00
3288;DHT22;3260;52.438;13.502;2023-04-24T04:19:43;13.00;1.00
3288;DHT22;3260;52.438;13.502;2023-04-24T04:22:11;13.00;1.00
3288;DHT22;3260;52.438;13.502;2023-04-24T04:24:39;13.00;1.00
3288;DHT22;3260;52.438;13.502;2023-04-24T04:27:08;13.00;1.00
3288;DHT22;3260;52.438;13.502;2023-04-24T04:29:36;13.00;1.00
3288;DHT22;3260;52.438;13.502;2023-04-24T04:32:05;13.00;1.00
3288;DHT22;3260;52.438;13.502;2023-04-24T04:34:33;13.00;1.00
3288;DHT22;3260;52.438;13.502;2023-04-24T04:37:05;13.00;1.00
3288;DHT22;3260;52.438;13.502;2023-04-24T04:39:34;13.00;1.00
3288;DHT22;3260;52.438;13.502;2023-04-24T04:42:02;13.10;1.00
3288;DHT22;3260;52.438;13.502;2023-04-24T04:44:30;13.10;1.00
3288;DHT22;3260;52.438;13.502;2023-04-24T04:46:59;13.20;1.00
3288;DHT22;3260;52.438;13.502;2023-04-24T04:49:30;13.20;1.00
3288;DHT22;3260;52.438;13.502;2023-04-24T04:51:58;13.30;1.00
3288;DHT22;3260;52.438;13.502;2023-04-24T04:54:28;13.30;1.00
3288;DHT22;3260;52.438;13.502;2023-04-24T04:56:56;13.40;1.00
3288;DHT22;3260;52.438;13.502;2023-04-24T04:59:27;13.50;1.00
3288;DHT22;3260;52.438;13.502;2023-04-24T05:01:55;13.60;1.00
3288;DHT22;3260;52.438;13.502;2023-04-24T05:04:24;13.60;1.00
3288;DHT22;3260;52.438;13.502;2023-04-24T05:06:53;13.60;1.00
3288;DHT22;3260;52.438;13.502;2023-04-24T05:09:21;13.70;1.00
3288;DHT22;3260;52.438;13.502;2023-04-24T05:11:51;13.70;1.00
3288;DHT22;3260;52.438;13.502;2023-04-24T05:14:19;13.70;1.00
3288;DHT22;3260;52.438;13.502;2023-04-24T05:16:47;13.70;1.00
3288;DHT22;3260;52.438;13.502;2023-04-24T05:19:15;13.70;1.00
3288;DHT22;3260;52.438;13.502;2023-04-24T05:21:44;13.80;1.00
3288;DHT22;3260;52.438;13.502;2023-04-24T05:24:12;13.80;1.00
3288;DHT22;3260;52.438;13.502;2023-04-24T05:26:40;13.80;1.00
3288;DHT22;3260;52.438;13.502;2023-04-24T05:29:10;13.90;1.00
3288;DHT22;3260;52.438;13.502;2023-04-24T05:31:38;13.90;1.00
3288;DHT22;3260;52.438;13.502;2023-04-24T05:34:06;13.90;1.00
3288;DHT22;3260;52.438;13.502;2023-04-24T05:36:35;13.90;1.00
3288;DHT22;3260;52.438;13.502;2023-04-24T05:39:03;13.90;1.00
3288;DHT22;3260;52.438;13.502;2023-04-24T05:41:34;13.90;1.00
3288;DHT22;3260;52.438;13.502;2023-04-24T05:44:02;13.80;1.00
3288;DHT22;3260;52.438;13.502;2023-04-24T05:46:32;13.70;1.00
3288;DHT22;3260;52.438;13.502;2023-04-24T05:49:00;13.70;1.00
3288;DHT22;3260;52.438;13.502;2023-04-24T05:51:28;13.70;1.00
3288;DHT22;3260;52.438;13.502;2023-04-24T05:53:57;13.80;1.00
3288;DHT22;3260;52.438;13.502;2023-04-24T05:56:25;13.80;1.00
3288;DHT22;3260;52.438;13.502;2023-04-24T05:58:53;13.80;1.00
3288;DHT22;3260;52.438;13.502;2023-04-24T06:01:22;13.80;1.00
3288;DHT22;3260;52.438;13.502;2023-04-24T06:03:53;13.80;1.00
3288;DHT22;3260;52.438;13.502;2023-04-24T06:06:21;13.90;1.00
3288;DHT22;3260;52.438;13.502;2023-04-24T06:08:50;13.80;1.00
3288;DHT22;3260;52.438;13.502;2023-04-24T06:11:18;13.90;1.00
3288;DHT22;3260;52.438;13.502;2023-04-24T06:13:46;14.00;1.00
3288;DHT22;3260;52.438;13.502;2023-04-24T06:16:15;14.10;1.00
3288;DHT22;3260;52.438;13.502;2023-04-24T06:18:43;14.10;1.00
3288;DHT22;3260;52.438;13.502;2023-04-24T06:21:16;14.20;1.00
3288;DHT22;3260;52.438;13.502;2023-04-24T06:23:44;14.40;1.00
3288;DHT22;3260;52.438;13.502;2023-04-24T06:26:13;14.50;1.00
3288;DHT22;3260;52.438;13.502;2023-04-24T06:28:41;14.60;1.00
3288;DHT22;3260;52.438;13.502;2023-04-24T06:31:09;14.60;1.00
3288;DHT22;3260;52.438;13.502;2023-04-24T06:33:38;14.60;1.00
3288;DHT22;3260;52.438;13.502;2023-04-24T06:36:06;14.60;1.00
3288;DHT22;3260;52.438;13.502;2023-04-24T06:38:36;14.60;1.00
3288;DHT22;3260;52.438;13.502;2023-04-24T06:41:04;14.70;1.00
3288;DHT22;3260;52.438;13.502;2023-04-24T06:43:32;14.90;1.00
3288;DHT22;3260;52.438;13.502;2023-04-24T06:46:01;15.10;1.00
3288;DHT22;3260;52.438;13.502;2023-04-24T06:48:30;15.30;1.00
3288;DHT22;3260;52.438;13.502;2023-04-24T06:50:59;15.40;1.00
3288;DHT22;3260;52.438;13.502;2023-04-24T06:53:28;15.50;1.00
3288;DHT22;3260;52.438;13.502;2023-04-24T06:55:58;15.70;1.00
3288;DHT22;3260;52.438;13.502;2023-04-24T06:58:26;15.80;1.00
3288;DHT22;3260;52.438;13.502;2023-04-24T07:00:54;16.00;1.00
3288;DHT22;3260;52.438;13.502;2023-04-24T07:03:23;16.00;1.00
3288;DHT22;3260;52.438;13.502;2023-04-24T07:05:52;16.10;1.00
3288;DHT22;3260;52.438;13.502;2023-04-24T07:08:20;16.10;1.00
3288;DHT22;3260;52.438;13.502;2023-04-24T07:10:49;16.00;1.00
3288;DHT22;3260;52.438;13.502;2023-04-24T07:13:19;16.00;1.00
3288;DHT22;3260;52.438;13.502;2023-04-24T07:15:48;16.00;1.00
3288;DHT22;3260;52.438;13.502;2023-04-24T07:18:17;16.00;1.00
3288;DHT22;3260;52.438;13.502;2023-04-24T07:20:46;16.00;1.00
3288;DHT22;3260;52.438;13.502;2023-04-24T07:23:14;16.00;1.00
3288;DHT22;3260;52.438;13.502;2023-04-24T07:25:42;16.10;1.00
3288;DHT22;3260;52.438;13.502;2023-04-24T07:28:10;16.10;1.00
3288;DHT22;3260;52.438;13.502;2023-04-24T07:30:40;16.20;1.00
3288;DHT22;3260;52.438;13.502;2023-04-24T07:33:08;16.40;1.00
3288;DHT22;3260;52.438;13.502;2023-04-24T07:35:39;16.60;1.00
3288;DHT22;3260;52.438;13.502;2023-04-24T07:38:08;16.70;1.00
3288;DHT22;3260;52.438;13.502;2023-04-24T07:40:36;16.60;1.00
3288;DHT22;3260;52.438;13.502;2023-04-24T07:43:04;16.60;1.00
3288;DHT22;3260;52.438;13.502;2023-04-24T07:45:32;16.60;1.00
3288;DHT22;3260;52.438;13.502;2023-04-24T07:48:05;16.60;1.00
3288;DHT22;3260;52.438;13.502;2023-04-24T07:50:35;16.60;1.00
3288;DHT22;3260;52.438;13.502;2023-04-24T07:53:04;16.90;1.00
3288;DHT22;3260;52.438;13.502;2023-04-24T07:55:32;17.10;1.00
3288;DHT22;3260;52.438;13.502;2023-04-24T07:58:00;17.20;1.00
3288;DHT22;3260;52.438;13.502;2023-04-24T08:00:29;17.20;1.00
3288;DHT22;3260;52.438;13.502;2023-04-24T08:02:57;17.20;1.00
3288;DHT22;3260;52.438;13.502;2023-04-24T08:05:27;17.00;1.00
3288;DHT22;3260;52.438;13.502;2023-04-24T08:07:57;17.00;1.00
3288;DHT22;3260;52.438;13.502;2023-04-24T08:10:26;17.00;1.00
3288;DHT22;3260;52.438;13.502;2023-04-24T08:12:54;17.00;1.00
3288;DHT22;3260;52.438;13.502;2023-04-24T08:15:23;17.20;1.00
3288;DHT22;3260;52.438;13.502;2023-04-24T08:17:51;17.20;1.00
3288;DHT22;3260;52.438;13.502;2023-04-24T08:20:20;17.30;1.00
3288;DHT22;3260;52.438;13.502;2023-04-24T08:22:50;17.30;1.00
3288;DHT22;3260;52.438;13.502;2023-04-24T08:25:18;17.50;1.00
3288;DHT22;3260;52.438;13.502;2023-04-24T08:27:46;17.70;1.00
3288;DHT22;3260;52.438;13.502;2023-04-24T08:30:15;18.10;1.00
3288;DHT22;3260;52.438;13.502;2023-04-24T08:32:44;18.50;1.00
3288;DHT22;3260;52.438;13.502;2023-04-24T08:35:12;18.60;1.00
3288;DHT22;3260;52.438;13.502;2023-04-24T08:37:40;18.70;1.00
3288;DHT22;3260;52.438;13.502;2023-04-24T08:40:13;18.70;1.00
3288;DHT22;3260;52.438;13.502;2023-04-24T08:42:43;18.90;1.00
3288;DHT22;3260;52.438;13.502;2023-04-24T08:45:12;19.00;1.00
3288;DHT22;3260;52.438;13.502;2023-04-24T08:47:41;19.00;1.00
3288;DHT22;3260;52.438;13.502;2023-04-24T08:50:11;19.10;1.00
3288;DHT22;3260;52.438;13.502;2023-04-24T08:52:42;19.30;1.00
3288;DHT22;3260;52.438;13.502;2023-04-24T08:55:12;19.30;1.00
3288;DHT22;3260;52.438;13.502;2023-04-24T08:57:41;19.30;1.00
3288;DHT22;3260;52.438;13.502;2023-04-24T09:00:12;19.20;1.00
3288;DHT22;3260;52.438;13.502;2023-04-24T09:02:42;19.20;1.00
3288;DHT22;3260;52.438;13.502;2023-04-24T09:05:12;19.00;1.00
3288;DHT22;3260;52.438;13.502;2023-04-24T09:07:43;19.00;1.00
3288;DHT22;3260;52.438;13.502;2023-04-24T09:10:15;19.20;1.00
3288;DHT22;3260;52.438;13.502;2023-04-24T09:12:44;19.30;1.00
3288;DHT22;3260;52.438;13.502;2023-04-24T09:15:13;19.50;1.00
3288;DHT22;3260;52.438;13.502;2023-04-24T09:17:42;19.50;1.00
3288;DHT22;3260;52.438;13.502;2023-04-24T09:20:11;19.50;1.00
3288;DHT22;3260;52.438;13.502;2023-04-24T09:22:39;19.40;1.00
3288;DHT22;3260;52.438;13.502;2023-04-24T09:25:09;19.00;1.00
3288;DHT22;3260;52.438;13.502;2023-04-24T09:27:43;19.00;1.00
3288;DHT22;3260;52.438;13.502;2023-04-24T09:30:14;18.80;1.00
3288;DHT22;3260;52.438;13.502;2023-04-24T09:32:49;18.80;1.00
3288;DHT22;3260;52.438;13.502;2023-04-24T09:35:20;18.80;1.00
3288;DHT22;3260;52.438;13.502;2023-04-24T09:37:48;18.70;1.00
3288;DHT22;3260;52.438;13.502;2023-04-24T09:40:17;18.80;1.00
3288;DHT22;3260;52.438;13.502;2023-04-24T09:42:52;18.90;1.00
3288;DHT22;3260;52.438;13.502;2023-04-24T09:45:22;18.80;1.00
3288;DHT22;3260;52.438;13.502;2023-04-24T09:47:55;18.80;1.00
3288;DHT22;3260;52.438;13.502;2023-04-24T09:50:23;18.80;1.00
3288;DHT22;3260;52.438;13.502;2023-04-24T09:52:57;18.90;1.00
3288;DHT22;3260;52.438;13.502;2023-04-24T09:55:29;19.20;1.00
3288;DHT22;3260;52.438;13.502;2023-04-24T09:58:00;19.10;1.00
3288;DHT22;3260;52.438;13.502;2023-04-24T10:00:33;19.10;1.00
3288;DHT22;3260;52.438;13.502;2023-04-24T10:03:03;19.10;1.00
3288;DHT22;3260;52.438;13.502;2023-04-24T10:05:35;19.10;1.00
3288;DHT22;3260;52.438;13.502;2023-04-24T10:08:06;19.10;1.00
3288;DHT22;3260;52.438;13.502;2023-04-24T10:10:39;19.30;1.00
3288;DHT22;3260;52.438;13.502;2023-04-24T10:13:11;19.00;1.00
3288;DHT22;3260;52.438;13.502;2023-04-24T10:15:41;19.00;1.00
3288;DHT22;3260;52.438;13.502;2023-04-24T10:18:10;19.30;1.00
3288;DHT22;3260;52.438;13.502;2023-04-24T10:20:40;19.50;1.00
3288;DHT22;3260;52.438;13.502;2023-04-24T10:23:08;19.60;1.00
3288;DHT22;3260;52.438;13.502;2023-04-24T10:25:37;19.50;1.00
3288;DHT22;3260;52.438;13.502;2023-04-24T10:28:05;19.60;1.00
3288;DHT22;3260;52.438;13.502;2023-04-24T10:30:39;19.60;1.00
3288;DHT22;3260;52.438;13.502;2023-04-24T10:33:11;20.00;1.00
3288;DHT22;3260;52.438;13.502;2023-04-24T10:35:42;20.30;1.00
3288;DHT22;3260;52.438;13.502;2023-04-24T10:38:16;20.70;1.00
3288;DHT22;3260;52.438;13.502;2023-04-24T10:40:50;21.00;1.00
3288;DHT22;3260;52.438;13.502;2023-04-24T10:43:19;21.10;1.00
3288;DHT22;3260;52.438;13.502;2023-04-24T10:46:02;21.00;1.00
3288;DHT22;3260;52.438;13.502;2023-04-24T10:48:31;20.70;1.00
3288;DHT22;3260;52.438;13.502;2023-04-24T10:51:00;20.50;1.00
3288;DHT22;3260;52.438;13.502;2023-04-24T10:53:29;20.30;1.00
3288;DHT22;3260;52.438;13.502;2023-04-24T10:56:02;20.30;1.00
3288;DHT22;3260;52.438;13.502;2023-04-24T10:58:39;20.10;1.00
3288;DHT22;3260;52.438;13.502;2023-04-24T11:01:24;19.80;1.00
3288;DHT22;3260;52.438;13.502;2023-04-24T11:03:59;19.90;1.00
3288;DHT22;3260;52.438;13.502;2023-04-24T11:06:29;20.00;1.00
3288;DHT22;3260;52.438;13.502;2023-04-24T11:09:03;20.20;1.00
3288;DHT22;3260;52.438;13.502;2023-04-24T11:11:34;20.40;1.00
3288;DHT22;3260;52.438;13.502;2023-04-24T11:14:05;20.90;1.00
3288;DHT22;3260;52.438;13.502;2023-04-24T11:16:39;21.60;1.00
3288;DHT22;3260;52.438;13.502;2023-04-24T11:19:19;22.30;1.00
3288;DHT22;3260;52.438;13.502;2023-04-24T11:21:58;22.70;1.00
3288;DHT22;3260;52.438;13.502;2023-04-24T11:24:33;22.70;1.00
3288;DHT22;3260;52.438;13.502;2023-04-24T11:27:11;21.80;1.00
3288;DHT22;3260;52.438;13.502;2023-04-24T11:29:43;21.10;1.00
3288;DHT22;3260;52.438;13.502;2023-04-24T11:32:27;20.50;1.00
3288;DHT22;3260;52.438;13.502;2023-04-24T11:34:58;20.10;1.00
3288;DHT22;3260;52.438;13.502;2023-04-24T11:37:29;18.90;1.00
3288;DHT22;3260;52.438;13.502;2023-04-24T11:40:02;17.30;1.00
3288;DHT22;3260;52.438;13.502;2023-04-24T11:42:36;16.20;1.00
3288;DHT22;3260;52.438;13.502;2023-04-24T11:45:11;15.40;1.00
3288;DHT22;3260;52.438;13.502;2023-04-24T11:47:42;15.10;1.00
3288;DHT22;3260;52.438;13.502;2023-04-24T11:50:13;15.20;1.00
3288;DHT22;3260;52.438;13.502;2023-04-24T11:52:44;15.50;1.00
3288;DHT22;3260;52.438;13.502;2023-04-24T11:55:24;16.00;1.00
3288;DHT22;3260;52.438;13.502;2023-04-24T11:57:56;16.90;74.60
3288;DHT22;3260;52.438;13.502;2023-04-24T12:00:28;17.80;20.80
3288;DHT22;3260;52.438;13.502;2023-04-24T12:03:07;17.90;1.00
3288;DHT22;3260;52.438;13.502;2023-04-24T12:05:36;17.80;1.00
3288;DHT22;3260;52.438;13.502;2023-04-24T12:08:06;18.40;1.00
3288;DHT22;3260;52.438;13.502;2023-04-24T12:10:34;19.70;1.00
3288;DHT22;3260;52.438;13.502;2023-04-24T12:13:03;20.00;1.00
3288;DHT22;3260;52.438;13.502;2023-04-24T12:15:32;19.80;1.00
3288;DHT22;3260;52.438;13.502;2023-04-24T12:18:00;19.70;1.00
3288;DHT22;3260;52.438;13.502;2023-04-24T12:20:31;19.20;1.00
3288;DHT22;3260;52.438;13.502;2023-04-24T12:23:01;19.80;1.00
3288;DHT22;3260;52.438;13.502;2023-04-24T12:25:30;21.10;1.00
3288;DHT22;3260;52.438;13.502;2023-04-24T12:28:10;21.90;1.00
3288;DHT22;3260;52.438;13.502;2023-04-24T12:30:41;22.00;1.00
3288;DHT22;3260;52.438;13.502;2023-04-24T12:33:11;22.10;1.00
3288;DHT22;3260;52.438;13.502;2023-04-24T12:35:41;22.00;1.00
3288;DHT22;3260;52.438;13.502;2023-04-24T12:38:10;21.50;1.00
3288;DHT22;3260;52.438;13.502;2023-04-24T12:40:41;21.60;1.00
3288;DHT22;3260;52.438;13.502;2023-04-24T12:43:13;22.50;1.00
3288;DHT22;3260;52.438;13.502;2023-04-24T12:45:43;22.70;1.00
3288;DHT22;3260;52.438;13.502;2023-04-24T12:48:12;22.30;1.00
3288;DHT22;3260;52.438;13.502;2023-04-24T12:50:42;21.60;1.00
3288;DHT22;3260;52.438;13.502;2023-04-24T12:53:13;21.10;1.00
3288;DHT22;3260;52.438;13.502;2023-04-24T12:55:42;20.90;1.00
3288;DHT22;3260;52.438;13.502;2023-04-24T12:58:11;21.00;1.00
3288;DHT22;3260;52.438;13.502;2023-04-24T13:00:39;21.40;1.00
3288;DHT22;3260;52.438;13.502;2023-04-24T13:03:10;21.40;1.00
3288;DHT22;3260;52.438;13.502;2023-04-24T13:05:41;22.30;1.00
3288;DHT22;3260;52.438;13.502;2023-04-24T13:08:10;22.50;1.00
3288;DHT22;3260;52.438;13.502;2023-04-24T13:10:39;22.70;1.00
3288;DHT22;3260;52.438;13.502;2023-04-24T13:13:08;22.60;1.00
3288;DHT22;3260;52.438;13.502;2023-04-24T13:15:36;22.30;1.00
3288;DHT22;3260;52.438;13.502;2023-04-24T13:18:05;21.90;1.00
3288;DHT22;3260;52.438;13.502;2023-04-24T13:20:33;23.60;1.00
3288;DHT22;3260;52.438;13.502;2023-04-24T13:23:03;25.20;1.00
3288;DHT22;3260;52.438;13.502;2023-04-24T13:25:35;26.00;1.00
3288;DHT22;3260;52.438;13.502;2023-04-24T13:28:06;27.00;1.00
3288;DHT22;3260;52.438;13.502;2023-04-24T13:30:34;26.50;1.00
3288;DHT22;3260;52.438;13.502;2023-04-24T13:33:02;25.70;1.00
3288;DHT22;3260;52.438;13.502;2023-04-24T13:35:30;26.70;1.00
3288;DHT22;3260;52.438;13.502;2023-04-24T13:37:59;27.90;1.00
3288;DHT22;3260;52.438;13.502;2023-04-24T13:40:29;27.90;1.00
3288;DHT22;3260;52.438;13.502;2023-04-24T13:42:57;28.00;1.00
3288;DHT22;3260;52.438;13.502;2023-04-24T13:45:25;28.60;1.00
3288;DHT22;3260;52.438;13.502;2023-04-24T13:47:54;29.20;1.00
3288;DHT22;3260;52.438;13.502;2023-04-24T13:50:23;29.90;1.00
3288;DHT22;3260;52.438;13.502;2023-04-24T13:52:52;29.40;1.00
3288;DHT22;3260;52.438;13.502;2023-04-24T13:55:20;28.90;1.00
3288;DHT22;3260;52.438;13.502;2023-04-24T13:57:51;30.10;1.00
3288;DHT22;3260;52.438;13.502;2023-04-24T14:00:21;31.10;1.00
3288;DHT22;3260;52.438;13.502;2023-04-24T14:02:50;31.50;1.00
3288;DHT22;3260;52.438;13.502;2023-04-24T14:05:18;30.00;1.00
3288;DHT22;3260;52.438;13.502;2023-04-24T14:07:48;30.10;1.00
3288;DHT22;3260;52.438;13.502;2023-04-24T14:10:17;30.00;1.00
3288;DHT22;3260;52.438;13.502;2023-04-24T14:12:45;30.40;1.00
3288;DHT22;3260;52.438;13.502;2023-04-24T14:15:15;30.90;1.00
3288;DHT22;3260;52.438;13.502;2023-04-24T14:17:43;30.20;1.00
3288;DHT22;3260;52.438;13.502;2023-04-24T14:20:12;30.00;1.00
3288;DHT22;3260;52.438;13.502;2023-04-24T14:22:40;29.90;1.00
3288;DHT22;3260;52.438;13.502;2023-04-24T14:25:09;28.20;1.00
3288;DHT22;3260;52.438;13.502;2023-04-24T14:27:37;27.30;1.00
3288;DHT22;3260;52.438;13.502;2023-04-24T14:30:07;28.60;1.00
3288;DHT22;3260;52.438;13.502;2023-04-24T14:32:38;30.10;1.00
3288;DHT22;3260;52.438;13.502;2023-04-24T14:35:07;30.50;1.00
3288;DHT22;3260;52.438;13.502;2023-04-24T14:37:36;31.10;1.00
3288;DHT22;3260;52.438;13.502;2023-04-24T14:40:08;31.10;1.00
3288;DHT22;3260;52.438;13.502;2023-04-24T14:42:57;30.40;1.00
3288;DHT22;3260;52.438;13.502;2023-04-24T14:45:25;30.90;1.00
3288;DHT22;3260;52.438;13.502;2023-04-24T14:47:57;31.00;1.00
3288;DHT22;3260;52.438;13.502;2023-04-24T14:50:25;31.00;1.00
3288;DHT22;3260;52.438;13.502;2023-04-24T14:52:55;31.00;1.00
3288;DHT22;3260;52.438;13.502;2023-04-24T14:55:24;30.60;1.00
3288;DHT22;3260;52.438;13.502;2023-04-24T14:57:52;29.70;1.00
3288;DHT22;3260;52.438;13.502;2023-04-24T15:00:21;28.80;1.00
3288;DHT22;3260;52.438;13.502;2023-04-24T15:02:51;29.10;1.00
3288;DHT22;3260;52.438;13.502;2023-04-24T15:05:21;29.10;1.00
3288;DHT22;3260;52.438;13.502;2023-04-24T15:07:51;28.40;1.00
3288;DHT22;3260;52.438;13.502;2023-04-24T15:10:19;27.80;1.00
3288;DHT22;3260;52.438;13.502;2023-04-24T15:12:49;26.60;1.00
3288;DHT22;3260;52.438;13.502;2023-04-24T15:15:17;25.10;1.00
3288;DHT22;3260;52.438;13.502;2023-04-24T15:17:46;23.70;1.00
3288;DHT22;3260;52.438;13.502;2023-04-24T15:20:14;22.20;1.00
3288;DHT22;3260;52.438;13.502;2023-04-24T15:22:43;21.50;1.00
3288;DHT22;3260;52.438;13.502;2023-04-24T15:25:12;22.00;1.00
3288;DHT22;3260;52.438;13.502;2023-04-24T15:27:42;23.30;1.00
3288;DHT22;3260;52.438;13.502;2023-04-24T15:30:11;24.00;1.00
3288;DHT22;3260;52.438;13.502;2023-04-24T15:32:40;24.70;1.00
3288;DHT22;3260;52.438;13.502;2023-04-24T15:35:09;25.20;1.00
3288;DHT22;3260;52.438;13.502;2023-04-24T15:37:38;24.80;1.00
3288;DHT22;3260;52.438;13.502;2023-04-24T15:40:09;24.40;1.00
3288;DHT22;3260;52.438;13.502;2023-04-24T15:42:41;23.20;1.00
3288;DHT22;3260;52.438;13.502;2023-04-24T15:45:10;21.80;1.00
3288;DHT22;3260;52.438;13.502;2023-04-24T15:47:39;21.10;1.00
3288;DHT22;3260;52.438;13.502;2023-04-24T15:50:09;20.20;1.00
3288;DHT22;3260;52.438;13.502;2023-04-24T15:52:40;19.60;1.00
3288;DHT22;3260;52.438;13.502;2023-04-24T15:55:10;19.20;1.00
3288;DHT22;3260;52.438;13.502;2023-04-24T15:57:39;19.00;1.00
3288;DHT22;3260;52.438;13.502;2023-04-24T16:00:09;18.70;1.00
3288;DHT22;3260;52.438;13.502;2023-04-24T16:02:37;18.40;1.00
3288;DHT22;3260;52.438;13.502;2023-04-24T16:05:07;18.50;1.00
3288;DHT22;3260;52.438;13.502;2023-04-24T16:07:37;18.40;1.00
3288;DHT22;3260;52.438;13.502;2023-04-24T16:10:06;18.30;1.00
3288;DHT22;3260;52.438;13.502;2023-04-24T16:12:37;18.30;1.00
3288;DHT22;3260;52.438;13.502;2023-04-24T16:15:06;18.00;1.00
3288;DHT22;3260;52.438;13.502;2023-04-24T16:17:35;17.90;1.00
3288;DHT22;3260;52.438;13.502;2023-04-24T16:20:04;17.60;1.00
3288;DHT22;3260;52.438;13.502;2023-04-24T16:22:33;17.30;1.00
3288;DHT22;3260;52.438;13.502;2023-04-24T16:25:02;17.30;1.00
3288;DHT22;3260;52.438;13.502;2023-04-24T16:27:31;17.20;1.00
3288;DHT22;3260;52.438;13.502;2023-04-24T16:30:01;17.20;1.00
3288;DHT22;3260;52.438;13.502;2023-04-24T16:32:29;17.10;1.00
3288;DHT22;3260;52.438;13.502;2023-04-24T16:34:58;17.00;1.00
3288;DHT22;3260;52.438;13.502;2023-04-24T16:37:27;17.00;1.00
3288;DHT22;3260;52.438;13.502;2023-04-24T16:39:56;16.90;1.00
3288;DHT22;3260;52.438;13.502;2023-04-24T16:42:24;16.70;1.00
3288;DHT22;3260;52.438;13.502;2023-04-24T16:44:52;16.60;1.00
3288;DHT22;3260;52.438;13.502;2023-04-24T16:47:22;16.60;1.00
3288;DHT22;3260;52.438;13.502;2023-04-24T16:49:50;16.50;1.00
3288;DHT22;3260;52.438;13.502;2023-04-24T16:52:18;16.50;1.00
3288;DHT22;3260;52.438;13.502;2023-04-24T16:54:47;16.50;1.00
3288;DHT22;3260;52.438;13.502;2023-04-24T16:57:15;16.40;1.00
3288;DHT22;3260;52.438;13.502;2023-04-24T16:59:43;16.30;1.00
3288;DHT22;3260;52.438;13.502;2023-04-24T17:02:11;15.70;1.00
3288;DHT22;3260;52.438;13.502;2023-04-24T17:04:41;15.40;1.00
3288;DHT22;3260;52.438;13.502;2023-04-24T17:07:09;15.20;1.00
3288;DHT22;3260;52.438;13.502;2023-04-24T17:09:37;14.90;1.00
3288;DHT22;3260;52.438;13.502;2023-04-24T17:12:06;14.70;1.00
3288;DHT22;3260;52.438;13.502;2023-04-24T17:14:34;14.40;1.00
3288;DHT22;3260;52.438;13.502;2023-04-24T17:17:02;14.40;1.00
3288;DHT22;3260;52.438;13.502;2023-04-24T17:19:31;14.20;1.00
3288;DHT22;3260;52.438;13.502;2023-04-24T17:22:00;14.20;1.00
3288;DHT22;3260;52.438;13.502;2023-04-24T17:24:32;14.30;1.00
3288;DHT22;3260;52.438;13.502;2023-04-24T17:27:01;14.30;1.00
3288;DHT22;3260;52.438;13.502;2023-04-24T17:29:40;14.20;1.00
3288;DHT22;3260;52.438;13.502;2023-04-24T17:32:09;13.90;1.00
3288;DHT22;3260;52.438;13.502;2023-04-24T17:34:37;13.80;1.00
3288;DHT22;3260;52.438;13.502;2023-04-24T17:37:07;13.70;1.00
3288;DHT22;3260;52.438;13.502;2023-04-24T17:39:35;13.80;1.00
3288;DHT22;3260;52.438;13.502;2023-04-24T17:42:04;14.10;1.00
3288;DHT22;3260;52.438;13.502;2023-04-24T17:44:32;14.40;1.00
3288;DHT22;3260;52.438;13.502;2023-04-24T17:47:01;14.50;1.00
3288;DHT22;3260;52.438;13.502;2023-04-24T17:49:31;14.40;1.00
3288;DHT22;3260;52.438;13.502;2023-04-24T17:51:59;14.20;1.00
3288;DHT22;3260;52.438;13.502;2023-04-24T17:54:29;14.00;1.00
3288;DHT22;3260;52.438;13.502;2023-04-24T17:56:57;13.70;1.00
3288;DHT22;3260;52.438;13.502;2023-04-24T17:59:25;13.50;1.00
3288;DHT22;3260;52.438;13.502;2023-04-24T18:01:54;13.50;1.00
3288;DHT22;3260;52.438;13.502;2023-04-24T18:04:24;13.40;1.00
3288;DHT22;3260;52.438;13.502;2023-04-24T18:06:52;13.20;1.00
3288;DHT22;3260;52.438;13.502;2023-04-24T18:09:20;13.10;1.00
3288;DHT22;3260;52.438;13.502;2023-04-24T18:11:50;12.80;1.00
3288;DHT22;3260;52.438;13.502;2023-04-24T18:14:18;12.60;1.00
3288;DHT22;3260;52.438;13.502;2023-04-24T18:16:46;12.50;1.00
3288;DHT22;3260;52.438;13.502;2023-04-24T18:19:15;12.40;1.00
3288;DHT22;3260;52.438;13.502;2023-04-24T18:21:43;12.40;1.00
3288;DHT22;3260;52.438;13.502;2023-04-24T18:24:11;12.40;1.00
3288;DHT22;3260;52.438;13.502;2023-04-24T18:26:39;12.30;1.00
3288;DHT22;3260;52.438;13.502;2023-04-24T18:29:09;12.40;1.00
3288;DHT22;3260;52.438;13.502;2023-04-24T18:31:38;12.30;1.00
3288;DHT22;3260;52.438;13.502;2023-04-24T18:34:06;12.20;1.00
3288;DHT22;3260;52.438;13.502;2023-04-24T18:36:34;12.10;1.00
3288;DHT22;3260;52.438;13.502;2023-04-24T18:39:03;12.00;1.00
3288;DHT22;3260;52.438;13.502;2023-04-24T18:41:31;11.90;1.00
3288;DHT22;3260;52.438;13.502;2023-04-24T18:44:00;11.90;1.00
3288;DHT22;3260;52.438;13.502;2023-04-24T18:46:30;11.80;1.00
3288;DHT22;3260;52.438;13.502;2023-04-24T18:49:03;11.70;1.00
3288;DHT22;3260;52.438;13.502;2023-04-24T18:51:32;11.60;1.00
3288;DHT22;3260;52.438;13.502;2023-04-24T18:54:18;11.60;1.00
3288;DHT22;3260;52.438;13.502;2023-04-24T18:56:47;11.50;1.00
3288;DHT22;3260;52.438;13.502;2023-04-24T18:59:15;11.40;1.00
3288;DHT22;3260;52.438;13.502;2023-04-24T19:01:44;11.40;1.00
3288;DHT22;3260;52.438;13.502;2023-04-24T19:04:13;11.30;1.00
3288;DHT22;3260;52.438;13.502;2023-04-24T19:06:41;11.20;1.00
3288;DHT22;3260;52.438;13.502;2023-04-24T19:09:09;11.10;1.00
3288;DHT22;3260;52.438;13.502;2023-04-24T19:11:38;11.10;1.00
3288;DHT22;3260;52.438;13.502;2023-04-24T19:14:07;11.10;1.00
3288;DHT22;3260;52.438;13.502;2023-04-24T19:16:35;11.00;1.00
3288;DHT22;3260;52.438;13.502;2023-04-24T19:19:05;10.90;1.00
3288;DHT22;3260;52.438;13.502;2023-04-24T19:21:33;10.80;1.00
3288;DHT22;3260;52.438;13.502;2023-04-24T19:24:02;10.70;1.00
3288;DHT22;3260;52.438;13.502;2023-04-24T19:26:31;10.70;1.00
3288;DHT22;3260;52.438;13.502;2023-04-24T19:29:00;10.70;1.00
3288;DHT22;3260;52.438;13.502;2023-04-24T19:31:28;10.60;1.00
3288;DHT22;3260;52.438;13.502;2023-04-24T19:33:57;10.60;1.00
3288;DHT22;3260;52.438;13.502;2023-04-24T19:36:26;10.50;1.00
3288;DHT22;3260;52.438;13.502;2023-04-24T19:38:56;10.50;1.00
3288;DHT22;3260;52.438;13.502;2023-04-24T19:41:25;10.50;1.00
3288;DHT22;3260;52.438;13.502;2023-04-24T19:43:53;10.40;1.00
3288;DHT22;3260;52.438;13.502;2023-04-24T19:46:21;10.40;1.00
3288;DHT22;3260;52.438;13.502;2023-04-24T19:48:49;10.50;1.00
3288;DHT22;3260;52.438;13.502;2023-04-24T19:51:18;10.50;1.00
3288;DHT22;3260;52.438;13.502;2023-04-24T19:53:47;10.60;1.00
3288;DHT22;3260;52.438;13.502;2023-04-24T19:56:16;10.60;1.00
3288;DHT22;3260;52.438;13.502;2023-04-24T19:58:44;10.60;1.00
3288;DHT22;3260;52.438;13.502;2023-04-24T20:01:14;10.70;1.00
3288;DHT22;3260;52.438;13.502;2023-04-24T20:03:42;10.60;1.00
3288;DHT22;3260;52.438;13.502;2023-04-24T20:06:10;10.60;1.00
3288;DHT22;3260;52.438;13.502;2023-04-24T20:08:39;10.50;1.00
3288;DHT22;3260;52.438;13.502;2023-04-24T20:11:09;10.40;1.00
3288;DHT22;3260;52.438;13.502;2023-04-24T20:13:37;10.40;1.00
3288;DHT22;3260;52.438;13.502;2023-04-24T20:16:06;10.30;1.00
3288;DHT22;3260;52.438;13.502;2023-04-24T20:18:37;10.30;1.00